Automated Weather Station

Lita, Tayabas, Quezon


Readings

as of August 06, 2016 01:00 AM
Wind Speed
1.4 mm
Rainfall Amount
0 mm
Rainfall Intensity
0 mm
Air Temperature
mm
Wind Direction
293 mm
Air Humidity
88.4 mm

Data Source: PREDICT (Advanced Science and Technology Institute)

12 HOUR DATA

PREVIOUS DATA

From
To
DateTime Wind Speed Rain Amount Rain Intensity Air Temperature Air Pressure Wind Direction Air Humidity
October 28, 2013 07:00 AM 3.3 0 mm 0 25.6 996.02 350 74.6
October 28, 2013 06:00 AM 4.8 0.02 mm 0 24.4 995.62 350 77.8
October 28, 2013 05:00 AM 3.8 0 mm 0 24.3 994.68 355 78.9
October 28, 2013 04:00 AM 5.3 0 mm 0 24.5 994.15 357 77.8
October 28, 2013 03:00 AM 4 0 mm 0 24.3 994.02 346 80.2
October 28, 2013 02:00 AM 4.8 0 mm 0 24.3 994.15 352 80.5
October 28, 2013 01:00 AM 5.4 0 mm 0 24.2 994.68 351 79.9
October 28, 2013 12:00 AM 3.8 0 mm 0 24.4 995.35 353 78.8
October 27, 2013 11:00 PM 4.2 0 mm 0 24.5 996.02 341 77.9
October 27, 2013 10:00 PM 5 0 mm 0 24.7 996.15 352 76
October 27, 2013 09:00 PM 5.8 0 mm 0 24.8 996.15 347 75.9
October 27, 2013 08:00 PM 5.2 0 mm 0 24.4 996.02 345 77.1
October 27, 2013 07:00 PM 5 0 mm 0 24.8 995.35 352 74.1
October 27, 2013 06:00 PM 6.9 0 mm 0 24.9 994.55 348 72.6
October 27, 2013 05:00 PM 0 0 mm 0 0 0 0 0
October 27, 2013 04:00 PM 6.9 0 mm 0 25.1 993.62 358 71.4
October 27, 2013 03:00 PM 5.2 0 mm 0 25.7 993.49 352 71.5
October 27, 2013 02:45 PM 5.5 0 mm 0 26.1 993.49 358 69.8
October 27, 2013 02:30 PM 6.5 0 mm 0 26.3 993.62 2 69.1
October 27, 2013 02:15 PM 6.3 0 mm 0 26.7 993.62 11 67.3
October 27, 2013 02:00 PM 6.8 0 mm 0 26.9 993.75 9 65.7
October 27, 2013 01:45 PM 6.7 0 mm 0 26.7 993.75 356 66.7
October 27, 2013 01:30 PM 5.9 0 mm 0 26.1 994.02 353 69.5
October 27, 2013 01:00 PM 5.4 0 mm 0 25.9 994.42 8 71.4
October 27, 2013 12:30 PM 7.1 0 mm 0 26.2 994.68 13 68.1
October 27, 2013 12:15 PM 6.2 0 mm 0 26.5 994.82 13 68.1
October 27, 2013 12:00 PM 6.3 0 mm 0 27 994.82 0 67.3
October 27, 2013 11:45 AM 5.1 0 mm 0 26.5 995.08 13 68.6
October 27, 2013 11:30 AM 6.2 0 mm 0 26.3 995.22 25 68.5
October 27, 2013 11:15 AM 6.3 0 mm 0 25.4 995.35 19 71.8